createdAt,value
2018-05-26T00:00:18.661Z,5.30
2018-05-26T00:02:46.166Z,5.27
2018-05-26T00:05:14.467Z,4.40
2018-05-26T00:07:41.985Z,4.80
2018-05-26T00:10:10.307Z,5.00
2018-05-26T00:12:37.825Z,4.87
2018-05-26T00:15:06.105Z,4.20
2018-05-26T00:17:33.646Z,3.90
2018-05-26T00:20:01.163Z,4.10
2018-05-26T00:22:28.702Z,4.70
2018-05-26T00:24:56.244Z,3.60
2018-05-26T00:27:23.774Z,4.10
2018-05-26T00:29:51.320Z,4.37
2018-05-26T00:32:18.852Z,3.83
2018-05-26T00:34:46.390Z,3.70
2018-05-26T00:37:13.898Z,3.87
2018-05-26T00:39:41.435Z,4.20
2018-05-26T00:42:08.983Z,3.87
2018-05-26T00:44:36.501Z,3.50
2018-05-26T00:47:04.809Z,4.30
2018-05-26T00:49:32.332Z,3.90
2018-05-26T00:52:00.628Z,3.43
2018-05-26T00:54:28.181Z,3.37
2018-05-26T00:56:55.708Z,3.70
2018-05-26T00:59:23.264Z,3.37
2018-05-26T01:01:50.785Z,3.80
2018-05-26T01:04:18.301Z,4.23
2018-05-26T01:06:46.598Z,3.63
2018-05-26T01:09:14.124Z,4.23
2018-05-26T01:11:42.434Z,3.60
2018-05-26T01:14:09.959Z,4.10
2018-05-26T01:16:38.233Z,3.87
2018-05-26T01:19:06.565Z,4.23
2018-05-26T01:21:34.111Z,3.70
2018-05-26T01:24:01.658Z,3.87
2018-05-26T01:26:29.183Z,3.87
2018-05-26T01:28:56.693Z,3.93
2018-05-26T01:31:24.219Z,4.07
2018-05-26T01:33:52.527Z,4.50
2018-05-26T01:36:20.079Z,3.43
2018-05-26T01:38:47.602Z,3.80
2018-05-26T01:41:15.908Z,3.80
2018-05-26T01:43:43.461Z,3.80
2018-05-26T01:46:10.987Z,3.90
2018-05-26T01:48:39.315Z,3.90
2018-05-26T01:51:06.836Z,3.90
2018-05-26T01:53:35.117Z,4.03
2018-05-26T01:56:03.509Z,3.77
2018-05-26T01:58:31.019Z,3.90
2018-05-26T02:00:58.556Z,3.77
2018-05-26T02:03:26.079Z,3.90
2018-05-26T02:05:53.590Z,3.90
2018-05-26T02:08:21.118Z,3.90
2018-05-26T02:10:48.647Z,3.80
2018-05-26T02:13:16.199Z,3.90
2018-05-26T02:15:44.469Z,3.93
2018-05-26T02:18:12.760Z,4.13
2018-05-26T02:20:40.355Z,3.93
2018-05-26T02:23:07.889Z,4.10
2018-05-26T02:25:35.446Z,4.27
2018-05-26T02:28:02.982Z,4.10
2018-05-26T02:30:31.268Z,3.87
2018-05-26T02:32:58.802Z,4.40
2018-05-26T02:35:27.109Z,4.30
2018-05-26T02:37:54.690Z,3.93
2018-05-26T02:40:22.206Z,3.93
2018-05-26T02:42:50.710Z,3.97
2018-05-26T02:45:18.263Z,4.00
2018-05-26T02:47:45.808Z,3.90
2018-05-26T02:50:14.122Z,4.47
2018-05-26T02:52:41.673Z,4.53
2018-05-26T02:55:09.189Z,4.00
2018-05-26T02:57:38.417Z,4.10
2018-05-26T03:00:05.959Z,4.10
2018-05-26T03:02:35.250Z,4.07
2018-05-26T03:05:09.244Z,4.30
2018-05-26T03:07:42.472Z,3.87
2018-05-26T03:10:15.719Z,3.80
2018-05-26T03:12:48.907Z,4.90
2018-05-26T03:15:15.960Z,4.23
2018-05-26T03:17:57.012Z,4.30
2018-05-26T03:20:24.563Z,3.90
2018-05-26T03:22:52.128Z,5.00
2018-05-26T03:25:19.674Z,4.27
2018-05-26T03:27:47.202Z,4.37
2018-05-26T03:30:14.717Z,4.33
2018-05-26T03:32:42.282Z,4.30
2018-05-26T03:35:10.584Z,4.00
2018-05-26T03:37:38.862Z,4.33
2018-05-26T03:40:07.164Z,4.60
2018-05-26T03:42:34.742Z,4.90
2018-05-26T03:45:02.304Z,4.30
2018-05-26T03:47:29.816Z,4.20
2018-05-26T03:49:58.142Z,4.60
2018-05-26T03:52:25.757Z,4.30
2018-05-26T03:58:13.636Z,4.33
2018-05-26T04:00:41.509Z,4.73
2018-05-26T04:03:09.064Z,4.40
2018-05-26T04:05:36.597Z,4.40
2018-05-26T04:08:04.123Z,4.87
2018-05-26T04:10:31.633Z,4.47
2018-05-26T04:12:59.167Z,4.27
2018-05-26T04:15:27.448Z,4.37
2018-05-26T04:17:54.959Z,4.27
2018-05-26T04:20:22.512Z,4.47
2018-05-26T04:22:50.039Z,5.07
2018-05-26T04:25:17.558Z,4.97
2018-05-26T04:27:45.877Z,4.40
2018-05-26T04:30:13.425Z,4.70
2018-05-26T04:32:40.937Z,4.37
2018-05-26T04:35:08.471Z,4.20
2018-05-26T04:37:36.010Z,5.03
2018-05-26T04:40:03.561Z,4.57
2018-05-26T04:42:31.082Z,4.37
2018-05-26T04:44:59.375Z,4.47
2018-05-26T04:47:27.699Z,4.47
2018-05-26T04:49:55.237Z,4.20
2018-05-26T04:52:22.789Z,4.50
2018-05-26T04:54:50.363Z,4.00
2018-05-26T04:57:17.890Z,4.90
2018-05-26T04:59:46.186Z,4.40
2018-05-26T05:02:13.714Z,5.80
2018-05-26T05:04:42.043Z,4.80
2018-05-26T05:07:09.573Z,5.10
2018-05-26T05:09:37.093Z,5.00
2018-05-26T05:12:04.639Z,5.17
2018-05-26T05:14:32.168Z,5.30
2018-05-26T05:16:59.727Z,5.20
2018-05-26T05:19:27.247Z,4.20
2018-05-26T05:21:55.555Z,4.50
2018-05-26T05:24:24.091Z,5.50
2018-05-26T05:26:52.570Z,4.30
2018-05-26T05:29:20.167Z,5.33
2018-05-26T05:31:47.693Z,5.00
2018-05-26T05:34:15.986Z,6.03
2018-05-26T05:36:43.532Z,4.80
2018-05-26T05:39:11.837Z,5.20
2018-05-26T05:41:39.380Z,5.20
2018-05-26T05:44:06.908Z,5.20
2018-05-26T05:46:34.432Z,5.30
2018-05-26T05:49:02.226Z,5.73
2018-05-26T05:51:29.856Z,5.60
2018-05-26T05:53:57.414Z,4.80
2018-05-26T05:56:24.973Z,5.67
2018-05-26T05:58:52.483Z,4.57
2018-05-26T06:01:20.808Z,5.87
2018-05-26T06:03:48.352Z,5.07
2018-05-26T06:06:15.895Z,5.27
2018-05-26T06:08:43.410Z,5.53
2018-05-26T06:11:10.938Z,5.53
2018-05-26T06:13:38.715Z,5.27
2018-05-26T06:16:06.273Z,5.70
2018-05-26T06:18:33.827Z,5.00
2018-05-26T06:21:01.747Z,5.30
2018-05-26T06:23:30.055Z,4.90
2018-05-26T06:25:57.627Z,5.47
2018-05-26T06:28:25.161Z,5.73
2018-05-26T06:30:52.704Z,4.70
2018-05-26T06:33:20.230Z,4.73
2018-05-26T06:35:47.763Z,5.50
2018-05-26T06:38:15.307Z,4.90
2018-05-26T06:40:42.933Z,4.90
2018-05-26T06:43:11.267Z,5.43
2018-05-26T06:45:38.781Z,5.10
2018-05-26T06:48:06.301Z,5.90
2018-05-26T06:50:33.863Z,5.53
2018-05-26T06:53:02.017Z,5.67
2018-05-26T06:55:29.562Z,5.30
2018-05-26T06:57:57.065Z,5.10
2018-05-26T07:00:25.387Z,5.50
2018-05-26T07:02:52.918Z,5.40
2018-05-26T07:05:20.435Z,5.70
2018-05-26T07:07:47.990Z,5.93
2018-05-26T07:10:15.605Z,6.57
2018-05-26T07:12:43.143Z,6.63
2018-05-26T07:15:10.696Z,7.33
2018-05-26T07:17:38.988Z,6.47
2018-05-26T07:20:06.565Z,6.43
2018-05-26T07:22:34.128Z,6.60
2018-05-26T07:25:01.646Z,6.57
2018-05-26T07:27:30.303Z,6.43
2018-05-26T07:29:57.821Z,7.17
2018-05-26T07:32:25.389Z,7.27
2018-05-26T07:34:52.915Z,7.17
2018-05-26T07:37:21.214Z,6.97
2018-05-26T07:39:49.734Z,7.73
2018-05-26T07:42:17.361Z,6.67
2018-05-26T07:44:44.912Z,7.40
2018-05-26T07:47:12.448Z,7.40
2018-05-26T07:49:39.973Z,6.77
2018-05-26T07:52:07.507Z,7.87
2018-05-26T07:54:35.046Z,7.37
2018-05-26T07:57:02.624Z,7.53
2018-05-26T07:59:30.166Z,7.13
2018-05-26T08:01:57.686Z,7.00
2018-05-26T08:04:25.991Z,9.20
2018-05-26T08:06:54.321Z,8.30
2018-05-26T08:09:21.850Z,8.10
2018-05-26T08:11:49.377Z,8.33
2018-05-26T08:14:16.953Z,8.00
2018-05-26T08:16:44.464Z,8.43
2018-05-26T08:19:12.001Z,7.70
2018-05-26T08:21:39.644Z,8.00
2018-05-26T08:24:07.201Z,8.10
2018-05-26T08:26:34.744Z,9.07
2018-05-26T08:29:02.281Z,7.67
2018-05-26T08:31:29.844Z,8.13
2018-05-26T08:33:57.374Z,7.50
2018-05-26T08:36:24.985Z,9.03
2018-05-26T08:38:52.549Z,8.93
2018-05-26T08:41:20.115Z,7.57
2018-05-26T08:43:47.669Z,8.50
2018-05-26T08:46:15.184Z,7.60
2018-05-26T08:48:43.468Z,8.23
2018-05-26T08:51:11.789Z,7.90
2018-05-26T08:53:39.316Z,8.07
2018-05-26T08:56:06.883Z,7.50
2018-05-26T08:58:34.445Z,7.20
2018-05-26T09:01:01.961Z,8.30
2018-05-26T09:03:30.262Z,7.50
2018-05-26T09:05:57.821Z,8.00
2018-05-26T09:08:25.342Z,9.30
2018-05-26T09:10:52.956Z,7.80
2018-05-26T09:13:20.476Z,8.13
2018-05-26T09:15:48.752Z,8.37
2018-05-26T09:18:18.398Z,7.80
2018-05-26T09:20:45.923Z,8.23
2018-05-26T09:23:14.241Z,8.17
2018-05-26T09:25:41.890Z,7.53
2018-05-26T09:28:09.477Z,6.87
2018-05-26T09:30:37.136Z,8.23
2018-05-26T09:33:04.666Z,8.10
2018-05-26T09:35:32.216Z,9.47
2018-05-26T09:37:59.737Z,9.03
2018-05-26T09:40:28.088Z,9.10
2018-05-26T09:42:55.626Z,7.80
2018-05-26T09:45:23.151Z,8.60
2018-05-26T09:47:51.465Z,13.13
2018-05-26T09:50:18.997Z,8.57
2018-05-26T09:52:46.518Z,7.60
2018-05-26T09:55:14.051Z,7.60
2018-05-26T09:57:41.576Z,7.80
2018-05-26T10:00:09.124Z,7.30
2018-05-26T10:02:37.398Z,7.57
2018-05-26T10:05:04.920Z,7.20
2018-05-26T10:07:32.469Z,6.63
2018-05-26T10:10:00.013Z,6.13
2018-05-26T10:12:27.562Z,6.43
2018-05-26T10:14:55.089Z,7.43
2018-05-26T10:17:23.390Z,6.77
2018-05-26T10:19:50.999Z,6.20
2018-05-26T10:22:18.507Z,6.80
2018-05-26T10:24:46.055Z,6.73
2018-05-26T10:27:13.593Z,6.70
2018-05-26T10:29:41.899Z,7.43
2018-05-26T10:32:09.498Z,7.70
2018-05-26T10:34:37.035Z,6.60
2018-05-26T10:37:04.686Z,6.60
2018-05-26T10:39:32.211Z,6.30
2018-05-26T10:42:00.517Z,5.50
2018-05-26T10:44:28.073Z,5.83
2018-05-26T10:46:55.611Z,4.83
2018-05-26T10:49:23.164Z,4.93
2018-05-26T10:51:51.390Z,5.70
2018-05-26T10:54:18.992Z,5.10
2018-05-26T10:56:46.624Z,6.47
2018-05-26T10:59:14.195Z,5.50
2018-05-26T11:01:42.526Z,4.70
2018-05-26T11:04:10.084Z,4.80
2018-05-26T11:06:44.408Z,4.83
2018-05-26T11:09:11.988Z,4.80
2018-05-26T11:11:40.044Z,4.70
2018-05-26T11:14:09.079Z,4.67
2018-05-26T11:16:36.874Z,4.67
2018-05-26T11:19:06.889Z,5.30
2018-05-26T11:21:36.309Z,4.97
2018-05-26T11:24:04.375Z,4.23
2018-05-26T11:26:32.064Z,4.57
2018-05-26T11:28:59.762Z,5.40
2018-05-26T11:31:28.344Z,4.43
2018-05-26T11:33:56.645Z,4.83
2018-05-26T11:36:26.023Z,4.63
2018-05-26T11:38:54.475Z,4.83
2018-05-26T11:41:23.946Z,5.03
2018-05-26T11:43:51.727Z,5.00
2018-05-26T11:46:19.583Z,5.40
2018-05-26T11:48:48.499Z,4.80
2018-05-26T11:51:16.120Z,4.73
2018-05-26T11:53:43.808Z,5.37
2018-05-26T11:56:11.444Z,5.07
2018-05-26T11:58:38.988Z,4.63
2018-05-26T12:01:06.549Z,5.17
2018-05-26T12:03:34.286Z,4.03
2018-05-26T12:06:02.573Z,4.30
2018-05-26T12:08:33.743Z,4.27
2018-05-26T12:11:01.290Z,4.43
2018-05-26T12:13:28.829Z,4.63
2018-05-26T12:15:57.163Z,3.90
2018-05-26T12:18:24.688Z,4.47
2018-05-26T12:20:55.785Z,4.50
2018-05-26T12:23:23.405Z,4.97
2018-05-26T12:25:51.710Z,5.20
2018-05-26T12:28:19.576Z,5.53
2018-05-26T12:30:47.159Z,5.10
2018-05-26T12:33:15.970Z,4.40
2018-05-26T12:35:43.984Z,4.80
2018-05-26T12:38:11.536Z,4.37
2018-05-26T12:40:39.161Z,4.63
2018-05-26T12:43:07.829Z,4.73
2018-05-26T12:45:36.095Z,4.90
2018-05-26T12:48:04.371Z,4.70
2018-05-26T12:50:33.520Z,4.50
2018-05-26T12:53:01.355Z,4.60
2018-05-26T12:55:30.616Z,4.50
2018-05-26T12:57:58.405Z,4.43
2018-05-26T13:00:27.116Z,4.40
2018-05-26T13:02:54.684Z,4.47
2018-05-26T13:05:22.217Z,4.20
2018-05-26T13:07:50.679Z,4.90
2018-05-26T13:10:18.316Z,4.15
2018-05-26T13:12:46.529Z,4.20
2018-05-26T13:15:14.871Z,4.00
2018-05-26T13:17:43.160Z,3.45
2018-05-26T13:20:10.798Z,4.10
2018-05-26T13:22:38.606Z,4.15
2018-05-26T13:25:07.213Z,4.50
2018-05-26T13:27:35.434Z,3.95
2018-05-26T13:30:04.610Z,4.50
2018-05-26T13:32:32.139Z,3.90
2018-05-26T13:34:59.680Z,4.00
2018-05-26T13:37:27.999Z,4.65
2018-05-26T13:39:55.508Z,4.45
2018-05-26T13:42:23.807Z,4.32
2018-05-26T13:44:51.374Z,4.00
2018-05-26T13:47:18.895Z,4.00
2018-05-26T13:49:47.222Z,4.30
2018-05-26T13:52:14.893Z,3.40
2018-05-26T13:54:42.458Z,4.07
2018-05-26T13:57:09.973Z,3.62
2018-05-26T13:59:37.517Z,4.10
2018-05-26T14:02:05.817Z,3.75
2018-05-26T14:04:33.394Z,3.55
2018-05-26T14:07:01.044Z,3.80
2018-05-26T14:09:28.576Z,4.50
2018-05-26T14:11:56.130Z,4.40
2018-05-26T14:14:24.546Z,4.00
2018-05-26T14:16:52.073Z,3.80
2018-05-26T14:19:19.601Z,3.80
2018-05-26T14:21:47.154Z,3.62
2018-05-26T14:24:14.772Z,3.37
2018-05-26T14:26:42.328Z,3.33
2018-05-26T14:29:09.887Z,3.25
2018-05-26T14:31:37.436Z,3.00
2018-05-26T14:34:04.951Z,3.25
2018-05-26T14:36:32.586Z,3.10
2018-05-26T14:39:00.125Z,3.80
2018-05-26T14:41:27.695Z,3.62
2018-05-26T14:43:55.260Z,3.87
2018-05-26T14:46:22.773Z,4.07
2018-05-26T14:48:51.179Z,3.95
2018-05-26T14:51:18.753Z,6.00
2018-05-26T14:53:46.323Z,3.65
2018-05-26T14:56:13.867Z,3.75
2018-05-26T14:58:41.443Z,3.87
2018-05-26T15:01:08.999Z,4.00
2018-05-26T15:03:36.509Z,3.53
2018-05-26T15:06:04.057Z,3.75
2018-05-26T15:08:32.344Z,4.90
2018-05-26T15:10:59.876Z,3.40
2018-05-26T15:13:27.494Z,4.43
2018-05-26T15:15:55.733Z,4.32
2018-05-26T15:18:24.037Z,3.58
2018-05-26T15:20:52.004Z,3.30
2018-05-26T15:23:19.575Z,4.20
2018-05-26T15:25:47.096Z,3.95
2018-05-26T15:28:15.427Z,4.82
2018-05-26T15:30:42.991Z,5.30
2018-05-26T15:33:10.629Z,5.55
2018-05-26T15:35:38.290Z,5.05
2018-05-26T15:38:05.843Z,5.97
2018-05-26T15:40:33.368Z,4.22
2018-05-26T15:43:01.683Z,4.57
2018-05-26T15:45:29.304Z,3.83
2018-05-26T15:47:57.616Z,5.03
2018-05-26T15:50:25.184Z,4.43
2018-05-26T15:52:52.725Z,4.83
2018-05-26T15:55:20.296Z,4.07
2018-05-26T15:57:47.943Z,4.37
2018-05-26T16:00:15.528Z,4.17
2018-05-26T16:02:43.303Z,4.27
2018-05-26T16:05:10.927Z,3.87
2018-05-26T16:07:38.502Z,4.35
2018-05-26T16:10:06.036Z,4.47
2018-05-26T16:12:33.612Z,5.07
2018-05-26T16:15:01.468Z,4.55
2018-05-26T16:17:28.995Z,5.25
2018-05-26T16:19:57.319Z,5.80
2018-05-26T16:22:24.880Z,4.32
2018-05-26T16:24:52.422Z,4.62
2018-05-26T16:27:20.411Z,3.92
2018-05-26T16:29:47.945Z,4.10
2018-05-26T16:32:15.514Z,3.87
2018-05-26T16:34:43.072Z,3.85
2018-05-26T16:37:10.651Z,4.25
2018-05-26T16:39:39.310Z,4.30
2018-05-26T16:42:06.850Z,4.40
2018-05-26T16:44:34.369Z,4.28
2018-05-26T16:47:01.899Z,4.33
2018-05-26T16:49:29.475Z,4.83
2018-05-26T16:51:57.116Z,4.73
2018-05-26T16:54:24.658Z,11.60
2018-05-26T16:56:52.220Z,8.98
2018-05-26T16:59:19.758Z,6.20
2018-05-26T17:01:48.066Z,4.25
2018-05-26T17:04:15.617Z,3.85
2018-05-26T17:06:43.149Z,6.47
2018-05-26T17:09:11.425Z,5.55
2018-05-26T17:11:39.771Z,4.20
2018-05-26T17:14:07.288Z,3.97
2018-05-26T17:16:34.893Z,4.10
2018-05-26T17:19:02.534Z,4.47
2018-05-26T17:21:30.079Z,4.13
2018-05-26T17:23:57.648Z,4.43
2018-05-26T17:26:25.293Z,4.50
2018-05-26T17:28:52.844Z,4.40
2018-05-26T17:31:20.386Z,4.30
2018-05-26T17:33:47.944Z,4.07
2018-05-26T17:36:15.535Z,4.57
2018-05-26T17:38:43.431Z,4.00
2018-05-26T17:41:11.775Z,4.77
2018-05-26T17:43:39.287Z,4.17
2018-05-26T17:46:07.602Z,4.70
2018-05-26T17:48:35.160Z,4.83
2018-05-26T17:51:02.701Z,4.80
2018-05-26T17:53:30.284Z,3.80
2018-05-26T17:55:57.935Z,4.40
2018-05-26T17:58:25.449Z,4.40
2018-05-26T18:00:53.747Z,3.90
2018-05-26T18:03:21.310Z,3.93
2018-05-26T18:05:48.836Z,3.80
2018-05-26T18:08:17.961Z,4.20
2018-05-26T18:10:45.564Z,4.23
2018-05-26T18:13:13.211Z,3.83
2018-05-26T18:15:40.733Z,4.80
2018-05-26T18:18:09.060Z,4.27
2018-05-26T18:20:36.598Z,3.97
2018-05-26T18:23:04.174Z,3.90
2018-05-26T18:25:31.727Z,5.27
2018-05-26T18:27:59.291Z,5.47
2018-05-26T18:30:26.850Z,4.90
2018-05-26T18:32:54.482Z,4.37
2018-05-26T18:35:21.957Z,4.67
2018-05-26T18:37:49.526Z,4.10
2018-05-26T18:40:17.180Z,4.80
2018-05-26T18:42:44.740Z,4.60
2018-05-26T18:45:12.250Z,4.80
2018-05-26T18:47:40.582Z,4.63
2018-05-26T18:50:08.123Z,4.40
2018-05-26T18:52:35.633Z,4.43
2018-05-26T18:55:03.245Z,4.23
2018-05-26T18:57:30.836Z,4.13
2018-05-26T18:59:58.368Z,4.37
2018-05-26T19:02:25.923Z,4.50
2018-05-26T19:04:53.465Z,4.50
2018-05-26T19:07:21.040Z,4.77
2018-05-26T19:09:48.590Z,4.57
2018-05-26T19:12:16.254Z,4.10
2018-05-26T19:14:43.777Z,5.47
2018-05-26T19:17:12.111Z,4.70
2018-05-26T19:19:41.389Z,5.10
2018-05-26T19:22:08.905Z,4.80
2018-05-26T19:24:37.258Z,4.77
2018-05-26T19:27:04.796Z,4.50
2018-05-26T19:29:32.328Z,5.30
2018-05-26T19:31:59.894Z,6.73
2018-05-26T19:34:27.467Z,6.80
2018-05-26T19:36:55.016Z,6.30
2018-05-26T19:39:22.574Z,6.80
2018-05-26T19:41:50.107Z,6.13
2018-05-26T19:44:18.408Z,5.80
2018-05-26T19:46:45.956Z,6.47
2018-05-26T19:49:13.521Z,6.07
2018-05-26T19:51:41.053Z,6.70
2018-05-26T19:54:09.906Z,6.67
2018-05-26T19:56:38.263Z,6.00
2018-05-26T19:59:05.792Z,5.70
2018-05-26T20:01:33.369Z,6.40
2018-05-26T20:04:00.939Z,5.70
2018-05-26T20:06:28.516Z,6.23
2018-05-26T20:08:56.058Z,5.60
2018-05-26T20:11:23.616Z,6.50
2018-05-26T20:13:51.128Z,5.37
2018-05-26T20:16:19.559Z,5.57
2018-05-26T20:21:21.850Z,6.33
2018-05-26T20:23:49.398Z,6.20
2018-05-26T20:26:16.914Z,5.40
2018-05-26T20:28:45.331Z,5.60
2018-05-26T20:31:12.913Z,5.73
2018-05-26T20:33:40.477Z,5.83
2018-05-26T20:36:08.108Z,5.93
2018-05-26T20:38:35.650Z,5.93
2018-05-26T20:41:03.253Z,6.13
2018-05-26T20:43:30.816Z,6.47
2018-05-26T20:45:58.450Z,6.70
2018-05-26T20:48:25.997Z,6.70
2018-05-26T20:50:53.555Z,7.10
2018-05-26T20:53:21.129Z,6.70
2018-05-26T20:55:48.686Z,6.70
2018-05-26T20:58:16.239Z,6.47
2018-05-26T21:00:43.791Z,6.37
2018-05-26T21:03:12.299Z,5.80
2018-05-26T21:05:39.861Z,5.67
2018-05-26T21:08:07.405Z,5.73
2018-05-26T21:10:34.920Z,5.43
2018-05-26T21:13:03.323Z,5.60
2018-05-26T21:15:30.833Z,5.10
2018-05-26T21:17:58.470Z,5.33
2018-05-26T21:20:26.133Z,5.30
2018-05-26T21:22:53.674Z,4.90
2018-05-26T21:25:21.208Z,5.03
2018-05-26T21:27:48.801Z,5.20
2018-05-26T21:30:16.298Z,4.90
2018-05-26T21:32:44.774Z,5.20
2018-05-26T21:35:12.368Z,5.00
2018-05-26T21:37:39.948Z,5.30
2018-05-26T21:40:07.519Z,5.17
2018-05-26T21:42:35.485Z,5.23
2018-05-26T21:45:03.035Z,4.43
2018-05-26T21:47:30.557Z,4.70
2018-05-26T21:49:58.974Z,5.63
2018-05-26T21:52:26.548Z,5.00
2018-05-26T21:54:54.067Z,5.00
2018-05-26T21:57:21.644Z,5.53
2018-05-26T21:59:49.201Z,5.83
2018-05-26T22:02:16.727Z,5.40
2018-05-26T22:04:45.042Z,5.07
2018-05-26T22:07:12.590Z,5.33
2018-05-26T22:09:40.159Z,5.40
2018-05-26T22:12:07.716Z,4.90
2018-05-26T22:14:35.229Z,5.73
2018-05-26T22:17:03.825Z,5.37
2018-05-26T22:19:32.222Z,5.50
2018-05-26T22:21:59.741Z,4.80
2018-05-26T22:24:28.086Z,4.73
2018-05-26T22:26:55.645Z,5.00
2018-05-26T22:29:23.247Z,5.33
2018-05-26T22:31:50.850Z,5.37
2018-05-26T22:34:18.519Z,5.50
2018-05-26T22:36:46.040Z,4.63
2018-05-26T22:39:13.579Z,5.17
2018-05-26T22:41:41.912Z,4.90
2018-05-26T22:44:10.188Z,5.03
2018-05-26T22:46:38.094Z,4.23
2018-05-26T22:52:31.044Z,4.73
2018-05-26T22:54:58.611Z,4.60
2018-05-26T22:57:26.132Z,4.37
2018-05-26T22:59:53.784Z,4.50
2018-05-26T23:02:21.355Z,4.40
2018-05-26T23:04:48.881Z,4.17
2018-05-26T23:07:17.195Z,4.13
2018-05-26T23:09:44.746Z,4.80
2018-05-26T23:12:12.257Z,5.07
2018-05-26T23:14:40.579Z,4.70
2018-05-26T23:17:08.143Z,4.30
2018-05-26T23:19:35.666Z,4.33
2018-05-26T23:22:03.997Z,4.30
2018-05-26T23:24:31.528Z,4.20
2018-05-26T23:26:59.055Z,4.00
2018-05-26T23:29:27.474Z,4.77
2018-05-26T23:31:55.004Z,3.90
2018-05-26T23:34:22.588Z,4.67
2018-05-26T23:36:50.155Z,4.47
2018-05-26T23:39:17.703Z,4.03
2018-05-26T23:41:45.261Z,4.23
2018-05-26T23:44:12.846Z,4.30
2018-05-26T23:46:40.368Z,4.30
2018-05-26T23:49:07.933Z,4.53
2018-05-26T23:51:35.487Z,4.50
2018-05-26T23:54:02.997Z,4.10
2018-05-26T23:56:30.507Z,4.53
2018-05-26T23:58:58.234Z,4.10
